Timeline UpdatesTrip UpdatesNews PostsPvt PostsTravel TipsAdmin PostsConv PostsFollowed PostsChat RequestsBlog PostsPNR Posts

Disclaimer
Search
 
 
Thu Apr 17, 2014 04:21:37 ISTHomeTrainsΣChainsAtlasPNRForumGalleryNewsFAQTripsMembersLoginFeedback
No Recent News for this Train
Other Trains in the News **new
Latest...
.
Tue Sep 17, 2013 (06:26PM)
⇐ Return Journey: Train# 58002

58001/Howrah-Puri Passenger (UnReserved)

Sep 18 2013 (6:25AM)
Change Departure Station:
Change Arrival Station:
Post a Train Travel TipPost a Train Travel Tip **new
Post a Comment/Question/Picture/VideoPost a Comment/Question/Picture/Video
Pantry/Catering
✕ NO Pantry Car
✓ Catering Avbl
RSA - Rake Sharing
58003-58004-58001-58002; Entry# 405717
Rake/Coach Composition
Only unreserved accommodation
Loco
SRC WAP-4
News    PNR    Forum    Time-Table    Availability    Fare Chart    Map    Arr/Dep History    Trips    Gallery    ΣChains    X/O    Timeline    
Travel Time: 9h 58m    56 halts    Distance: 353 km    Avg Speed: 35 km/hr
Type: Passenger
Zone: SER/South Eastern
Departs @ 23:50 (Avg 17m late)
Platform# 17
SMTWTFS
Kolkata Howrah Junction/HWH 
Arrives @ 09:48 +1 night (Avg 29m late)
Platform# ???
SMTWTFS
Jenapur/JEN 

56 halts. 72 intermediate Stations between Kolkata Howrah Junction and Jenapur

Show ALL intermediate Stations  Show Old Time-Table

#CodeStation NameX/OArrivesAvgDepartsAvgHaltPFDay#KmSpeedElevZoneAddress
1HWH»Kolkata Howrah Junction (23)»  -23:50+171710.02210mERHowrah 711101, West Bengal
2RMJRamrajatala (3)  00:06+2400:07+241m--25.9177mSERHowrah, West Bengal
3SRCKolkata Santragachi Junction (6)  00:12+2100:13+211m227.3407mSERDist: Howrah - 711104, West Bengal
4ADLAndul (5)  00:20+2400:21+241m--212.06110mSERPin: 711302, West Bengal
5NALRNalpur (4)  00:29+2200:30+231m--220.1375mSERHowrah, West Bengal
6BVABauria Junction  00:36+2200:37+221m--223.8387mSERHowrah, West Bengal
7CGAChengel (5)  00:42+2200:43+221m--226.9318mSERNational Highway 6, West Bengal
8FLRPhuleswarX  00:48+2000:49+201m--229.53010mSERHowrah, West Bengal
9ULBUluberia (6)  00:54+1900:55+191m2232.04010mSERdist - howrah, West Bengal
10BSBPBir Shibpur (4)  01:01+1701:02+171m--236.0525mSERDist: Howrah, West Bengal
11KGYKulgachia  01:06+1801:07+181m--239.5557mSERHowrah, West Bengal
12BZNBagnan (4)  01:13+1801:14+191m--244.9498mSERBagnan, West Bengal
13DTEDeulti  01:21+1901:22+181m--250.7379mSERDeulty, West Bengal
14KIGKolaghat (3)  01:29+1901:30+191m--255.03611mSEREast Medinipore, West Bengal
15MCAMecheda (6)  01:35+1701:36+191m--258.04510mSERdist - purba Medinipur, West Bengal
16BOPBhogpur  01:43+1901:44+191m--263.3617mSERMedinipur, West Bengal
17PKUPanskura Junction (6)X  01:51+1901:52+201m--270.4449mSERPanskura, West Bengal
18KHAIKhirai (3)X  01:59+1902:00+191m--275.65311mSERPaschim Medinipur, West Bengal
19HAURHaurX  02:05+1902:06+191m--280.04412mSERMedinipur, West Bengal
20RDURadhamohanpur (2)X  02:12+1902:13+191m--284.46217mSERDist: West Medinipur, West Bengal
21BCKBalichak (4)  02:19+1902:20+201m--290.64721mSERKharagpur, West Bengal
22SMCKShyam Chak (4)  02:27+2002:28+201m--296.05920mSERDist: West Medinipur, West Bengal
23MPDMadpurO  02:34+2002:35+201m--2101.95827mSERKharagpur, West Bengal
24JPRJakpur (4)X  02:41+1702:42+151m--2107.82328mSERJakpur, West Bengal
25KGPKharagpur Junction (10)  03:00+1003:25+2025m--2114.87342mSERKharagpur, West Bengal
26BLDABeldaX  03:54+3503:55+361m--2150.34424mSERDistrict Paschim Medinipur, West Bengal
27NSINikursini  04:06+3404:07+341m--2158.46424mSERNikursini, West Bengal
28DNTDantan  04:15+3304:16+341m--2166.94419mSERNational Highway 60, West Bengal
29AGVAngua  04:22+3204:23+331m--2171.35117mSERWest Medinipore, West Bengal
30LXDLakshannath RoadX  04:30+3304:31+331m--2177.34617mSERDist. Balasore, Odisha
31JERJaleswar (4)  04:39+3204:40+341m--2183.44613mSERJaleswar, Odisha
32RGTRajghat Halt  04:50+3104:51+311m--2191.14317mSERRajghat, Odisha
33ARDAmarda RoadX  05:00+3105:01+321m--2197.54611mSERAmarda Road, Odisha
34BTSBasta (3)  05:08+3205:09+331m--2202.94816mSERBasta, Odisha
35NMBRN Mayurbhanj RoadX  05:15+3105:16+321m--2207.74611mSERBaleswar, Odisha
36ROPRupsa Junction (5)  05:23+3105:24+331m--2213.05213mSERRupsa, Odisha
37HIPHaldipada  05:31+3205:32+331m--2219.1519mSERHaldipada, Odisha
38TKPLTikirapal Halt  05:40+3005:41+311m--2225.9338mSERBaleswar, Odisha
39BLSBalasore (4)X  05:50+3005:55+295m12230.97119mSERBalasore, Odisha
40NGRDNilgiri RoadX  06:04+2806:05+291m--2241.54814mSERBaleswar, Odisha
41KHFKhantapara  06:11+2906:12+291m--2246.35015mSERKhantaparha, Odisha
42PNPNPanpana  06:18+2806:19+291m--2251.34415mSERKhantaparha, Odisha
43BNBRBahanaga BazarX  06:25+2806:26+291m--2255.75819mSERBalasore Distt., Odisha
44SOROSoro  06:35+2806:36+281m--2264.36514mSERSoro, Odisha
45SZZSabira  06:44-06:45-1m--2273.05214mSERNational Highway 5, Odisha
46MKOMarkonaX  06:52+2706:53+271m--2279.15518mSERMarkuna, Odisha
47RNTLRanitalX  07:00+3507:01+351m--2285.52022mSERBhadrak, Odisha
48BHCBhadrak (4)  07:25+3507:30+385m--2293.34323mECoRBhadrak, Odisha
49BUDRBaudpur  07:39+4107:40+471m--2299.85221mECoRBhadrak, Odisha
50KPLDKapali Road  07:45+4607:46+461m--2304.17120mECoRKantia, Odisha
51KEDKenduapadaXO  07:50+4707:51+511m--2308.86923mECoRBhadrak, Odisha
52MZZManjuri Road  07:57+5307:58+561m--2315.74828mECoRBhadrak, Odisha
53DLPTDulakhapatnaX  08:03+5308:04+531m--2319.74727mECoRBandalo, Odisha
54BTVBaitarani RoadX  08:11+5408:12+571m--2325.15927mECoRBaitarani, Odisha
55KRIHKorai HaltXO  08:19+5708:20+571m--2332.0430mECoRJajapur, Odisha
56JJKRJajpur Keonjhar Road (4)X  09:29+1209:30+231m--2337.09336mECoRJajpur, Odisha
57JKPRJakhapura  09:35+2709:36+301m--2344.73919mECoRJajpur, Odisha
58JEN•Jenapur•  09:48+2909:49+331m--2352.65023mECoRNational Highway 200, Odisha
59NGMPNew Garh MadhopurX  09:56+3309:57+341m--2358.56628mECoRGarh Madhopur, Odisha
60HDSHaridaspur  10:06+3310:07+351m--2368.36130mECoRDhanmandal, Odisha
61DNMDhanmandal (3)X  10:12+3710:13+441m--2373.47638mECoRDhanmanda, Odisha
62BRTGBarithengarhXO  10:18+4610:19+461m--2379.8625mECoRCuttack, Odisha
63BYYByree  11:05+1311:06+161m--2384.24833mECoRBairi, Odisha
64SJDRSri Jhadeshwar Road  11:11+1711:12+171m--2388.15830mECoRNational Highway 5, Odisha
65KISKapilas Road Junction  11:18+1711:19+261m--2394.03824mECoRTangi, Odisha
66SQQSalagaon  11:26+3111:27+341m--2398.41729mECoRCuttack, Odisha
67CBTCharbatia  11:44+2811:45+311m--2403.37835mECoRCuttack, Odisha
68BDPGBada Padagaon  11:48+3011:49+301m--2407.22931mECoRCuttack, Odisha
69GJTAGurudijhatia  11:59+3012:00+361m--2412.06233mECoRGurudijhat, Odisha
70MZYMachapur  12:06+3912:07+391m--2418.12248mECoRKapilash Rd, Odisha
71RQPRadhakishorepur  12:13+4012:14+431m--2420.37251mECoRNational Highway 42, Odisha
72GHNHGhantakhal Nidhipur  12:19+4812:20+1:041m--2426.33139mECoRCuttack, Odisha
73NQRNaraj MarthapurX  12:35+1:0212:36+1:191m--2434.05329mECoRCuttack, Odisha
74BRAGBarangX  12:46+1:2212:47+1:261m--2442.94127mECoRDist - Cuttack, Odisha
75MCSMancheswar  13:00+1:2713:01+1:291m--2451.82927mECoRMancheswar, Odisha
76BBSBhubaneswar (4)X  13:15+1:2013:20+1:215m42458.65440mECoRBhubaneshwar ph.no. 0674-2532233, Odisha
77LGTRLingaraj Temple Road  13:25+1:2813:26+1:281m--2463.110639mECoRBhubaneswar, Odisha
78RTNRetangXO  13:30+1:3213:31+1:321m--2470.1419mECoRKhurdha, Odisha
79KURKhurda Road Junction (7)  15:15+2115:25+2310m--2477.52325mECoRKhordha, Odisha
80HPGMHaripur GramX  15:32+1815:33+211m--2480.14622mECoRKhordha, Odisha
81MWQMotari Halt  15:40+1815:41+211m--2485.54212mECoRMotari, Odisha
82KASRKanas Road  15:46+2015:47+211m--2489.0229mECoRKhordha, Odisha
83DEGDelang  15:57+1615:58+261m--2492.7369mECoRKhordha, Odisha
84JPRDJenapur RoadXO  16:03-16:04-1m--2495.74510mECoRKhordha, Odisha
85BRSTBir Purushottampur  16:09+2616:10+381m--2499.46712mECoRSatasankha, Odisha
86SILSakhi Gopal (3)O  16:15+4016:16+411m--2505.06010mECoRPuri, Odisha
87JKDPJankidaipur  16:22+3916:23+401m--2511.03713mECoRChandanpur, Odisha
88MLTMalatipatpur (1)  16:28+3816:29+531m12514.1315mECoRPuri, Odisha
89PURIPuri (5)  19:00+20---2521.4-12mECoRPuri, Odisha
Scroll to Top
Scroll to Bottom